Terminal Aerodrome Forecast
Issued by NWS Wakefield, VA

Home | Current Version | Previous Version | Text Only | Print | Product List | Glossary On
Versions: 1 2 3 4 5 6 7 8 9 10 11 12 13 14 15 16
000
FTUS41 KAKQ 270300 AAA
TAFSBY
TAF AMD
KSBY 270325Z 2703/2724 VRB03KT 1SM BR SCT025 SCT040
      TEMPO 2703/2707 1/4SM FZFG VV004
     FM271700 33006KT P6SM BKN015 OVC050
     FM272200 32010KT P6SM SCT025 BKN040=

USA.gov is the U.S. government's official web portal to all federal, state and local government web resources and services.